createdAt,value
2018-04-07T00:02:23.445Z,94454.66
2018-04-07T00:04:51.113Z,94455.06
2018-04-07T00:07:18.838Z,94455.97
2018-04-07T00:09:46.602Z,94456.11
2018-04-07T00:12:14.309Z,94454.34
2018-04-07T00:14:41.980Z,94451.34
2018-04-07T00:17:09.661Z,94453.48
2018-04-07T00:19:37.406Z,94444.69
2018-04-07T00:22:05.096Z,94445.95
2018-04-07T00:24:32.723Z,94440.23
2018-04-07T00:27:00.448Z,94441.97
2018-04-07T00:29:29.292Z,94445.48
2018-04-07T00:31:56.903Z,94438.40
2018-04-07T00:34:24.589Z,94438.88
2018-04-07T00:36:52.285Z,94437.72
2018-04-07T00:39:20.365Z,94442.84
2018-04-07T00:41:47.980Z,94435.59
2018-04-07T00:44:15.583Z,94436.48
2018-04-07T00:46:43.256Z,94439.56
2018-04-07T00:49:10.958Z,94435.34
2018-04-07T00:51:38.636Z,94434.16
2018-04-07T00:54:06.333Z,94433.48
2018-04-07T00:56:33.939Z,94433.77
2018-04-07T00:59:01.548Z,94431.83
2018-04-07T01:01:29.169Z,94435.86
2018-04-07T01:03:56.814Z,94437.48
2018-04-07T01:06:24.450Z,94428.37
2018-04-07T01:08:52.101Z,94435.14
2018-04-07T01:11:19.718Z,94431.55
2018-04-07T01:13:47.349Z,94432.34
2018-04-07T01:16:14.989Z,94434.91
2018-04-07T01:18:42.617Z,94430.59
2018-04-07T01:21:10.204Z,94430.78
2018-04-07T01:23:37.934Z,94417.16
2018-04-07T01:26:05.677Z,94421.53
2018-04-07T01:28:33.324Z,94423.18
2018-04-07T01:31:00.909Z,94421.19
2018-04-07T01:33:28.522Z,94422.84
2018-04-07T01:35:57.342Z,94414.91
2018-04-07T01:38:25.531Z,94416.38
2018-04-07T01:40:53.308Z,94419.24
2018-04-07T01:43:21.049Z,94411.30
2018-04-07T01:45:48.929Z,94419.38
2018-04-07T01:48:16.795Z,94418.72
2018-04-07T01:50:44.381Z,94412.77
2018-04-07T01:53:12.107Z,94415.39
2018-04-07T01:55:39.772Z,94418.12
2018-04-07T01:58:07.428Z,94415.03
2018-04-07T02:00:35.082Z,94410.99
2018-04-07T02:03:03.326Z,94407.48
2018-04-07T02:05:31.038Z,94414.53
2018-04-07T02:07:58.646Z,94413.63
2018-04-07T02:10:26.360Z,94414.74
2018-04-07T02:12:53.995Z,94411.41
2018-04-07T02:15:21.644Z,94411.69
2018-04-07T02:17:49.532Z,94414.17
2018-04-07T02:20:17.177Z,94413.97
2018-04-07T02:22:45.483Z,94412.20
2018-04-07T02:25:13.707Z,94417.39
2018-04-07T02:27:41.383Z,94410.21
2018-04-07T02:30:09.092Z,94405.50
2018-04-07T02:32:36.881Z,94407.56
2018-04-07T02:35:04.513Z,94404.07
2018-04-07T02:37:32.180Z,94408.42
2018-04-07T02:39:59.847Z,94412.24
2018-04-07T02:42:27.685Z,94407.13
2018-04-07T02:44:55.269Z,94404.33
2018-04-07T02:47:22.949Z,94406.02
2018-04-07T02:49:51.008Z,94403.53
2018-04-07T02:52:18.653Z,94403.89
2018-04-07T02:54:46.258Z,94401.27
2018-04-07T02:57:13.885Z,94398.62
2018-04-07T02:59:41.527Z,94402.30
2018-04-07T03:02:09.712Z,94404.97
2018-04-07T03:04:38.049Z,94396.42
2018-04-07T03:07:05.633Z,94394.91
2018-04-07T03:09:33.241Z,94398.52
2018-04-07T03:12:00.905Z,94400.53
2018-04-07T03:14:28.529Z,94396.77
2018-04-07T03:16:56.139Z,94395.27
2018-04-07T03:19:23.819Z,94389.61
2018-04-07T03:21:51.441Z,94387.86
2018-04-07T03:24:19.067Z,94392.22
2018-04-07T03:26:46.787Z,94393.87
2018-04-07T03:29:14.459Z,94392.97
2018-04-07T03:31:42.081Z,94396.38
2018-04-07T03:34:09.703Z,94389.15
2018-04-07T03:36:37.356Z,94389.63
2018-04-07T03:39:05.021Z,94391.18
2018-04-07T03:41:32.686Z,94386.93
2018-04-07T03:44:00.333Z,94391.73
2018-04-07T03:46:27.957Z,94401.02
2018-04-07T03:48:55.743Z,94396.27
2018-04-07T03:51:23.381Z,94402.01
2018-04-07T03:53:51.016Z,94399.28
2018-04-07T03:56:18.638Z,94401.44
2018-04-07T03:58:46.506Z,94404.38
2018-04-07T04:01:14.096Z,94400.55
2018-04-07T04:03:41.917Z,94399.80
2018-04-07T04:06:09.507Z,94403.73
2018-04-07T04:08:37.244Z,94405.59
2018-04-07T04:11:05.014Z,94401.26
2018-04-07T04:13:33.217Z,94411.20
2018-04-07T04:16:00.840Z,94405.71
2018-04-07T04:18:28.497Z,94404.83
2018-04-07T04:20:56.067Z,94405.47
2018-04-07T04:23:23.699Z,94403.70
2018-04-07T04:25:51.348Z,94409.72
2018-04-07T04:28:19.011Z,94411.05
2018-04-07T04:30:46.659Z,94406.95
2018-04-07T04:33:14.261Z,94408.47
2018-04-07T04:35:41.941Z,94408.28
2018-04-07T04:38:09.560Z,94409.67
2018-04-07T04:40:37.216Z,94405.99
2018-04-07T04:43:04.868Z,94414.30
2018-04-07T04:45:33.366Z,94416.65
2018-04-07T04:48:01.267Z,94421.94
2018-04-07T04:50:29.033Z,94417.69
2018-04-07T04:52:56.682Z,94417.02
2018-04-07T04:55:24.363Z,94414.09
2018-04-07T04:57:52.007Z,94414.13
2018-04-07T05:00:19.674Z,94409.08
2018-04-07T05:02:47.334Z,94408.23
2018-04-07T05:05:15.191Z,94406.23
2018-04-07T05:07:42.826Z,94408.14
2018-04-07T05:10:10.456Z,94407.28
2018-04-07T05:12:38.355Z,94407.78
2018-04-07T05:15:06.634Z,94404.95
2018-04-07T05:17:34.275Z,94411.97
2018-04-07T05:20:02.113Z,94407.53
2018-04-07T05:22:30.594Z,94416.38
2018-04-07T05:24:58.224Z,94413.36
2018-04-07T05:27:26.073Z,94406.77
2018-04-07T05:29:53.695Z,94396.27
2018-04-07T05:32:21.528Z,94401.60
2018-04-07T05:34:49.276Z,94400.97
2018-04-07T05:37:17.191Z,94409.22
2018-04-07T05:39:45.150Z,94409.92
2018-04-07T05:42:13.019Z,94407.00
2018-04-07T05:44:41.666Z,94415.02
2018-04-07T05:47:09.312Z,94411.25
2018-04-07T05:49:37.242Z,94413.33
2018-04-07T05:52:05.334Z,94412.23
2018-04-07T05:54:33.060Z,94411.34
2018-04-07T05:57:00.671Z,94417.98
2018-04-07T05:59:32.766Z,94411.22
2018-04-07T06:02:00.710Z,94414.95
2018-04-07T06:04:28.364Z,94409.51
2018-04-07T06:06:56.141Z,94408.22
2018-04-07T06:09:23.773Z,94415.44
2018-04-07T06:11:51.405Z,94411.53
2018-04-07T06:14:19.107Z,94407.70
2018-04-07T06:16:46.835Z,94400.99
2018-04-07T06:19:14.724Z,94396.34
2018-04-07T06:21:42.378Z,94394.17
2018-04-07T06:24:10.249Z,94394.80
2018-04-07T06:26:37.891Z,94389.20
2018-04-07T06:29:05.597Z,94387.73
2018-04-07T06:31:33.536Z,94384.63
2018-04-07T06:34:01.612Z,94385.09
2018-04-07T06:36:29.216Z,94383.30
2018-04-07T06:38:56.972Z,94382.48
2018-04-07T06:41:24.671Z,94383.34
2018-04-07T06:43:52.580Z,94382.25
2018-04-07T06:46:20.318Z,94386.04
2018-04-07T06:48:48.285Z,94379.28
2018-04-07T06:51:16.178Z,94384.47
2018-04-07T06:53:43.929Z,94377.72
2018-04-07T06:56:11.590Z,94378.17
2018-04-07T06:58:39.626Z,94371.36
2018-04-07T07:01:07.360Z,94373.66
2018-04-07T07:03:34.967Z,94370.03
2018-04-07T07:06:02.758Z,94364.75
2018-04-07T07:08:30.721Z,94352.17
2018-04-07T07:10:58.313Z,94357.59
2018-04-07T07:13:26.150Z,94353.05
2018-04-07T07:15:54.050Z,94354.45
2018-04-07T07:18:22.119Z,94352.77
2018-04-07T07:20:50.850Z,94352.69
2018-04-07T07:23:18.645Z,94347.48
2018-04-07T07:25:46.669Z,94354.34
2018-04-07T07:28:14.359Z,94361.36
2018-04-07T07:30:43.309Z,94349.78
2018-04-07T07:33:11.949Z,94348.31
2018-04-07T07:35:40.542Z,94343.87
2018-04-07T07:38:08.302Z,94338.03
2018-04-07T07:40:36.074Z,94345.01
2018-04-07T07:43:03.947Z,94339.00
2018-04-07T07:45:31.820Z,94328.85
2018-04-07T07:48:00.490Z,94323.44
2018-04-07T07:50:29.966Z,94313.00
2018-04-07T07:52:57.685Z,94323.16
2018-04-07T07:55:26.529Z,94321.57
2018-04-07T07:57:54.596Z,94320.53
2018-04-07T08:00:24.772Z,94313.16
2018-04-07T08:02:52.656Z,94316.06
2018-04-07T08:05:20.324Z,94317.39
2018-04-07T08:07:48.722Z,94311.69
2018-04-07T08:10:17.334Z,94305.92
2018-04-07T08:12:45.823Z,94303.62
2018-04-07T08:15:13.568Z,94304.38
2018-04-07T08:17:41.645Z,94305.58
2018-04-07T08:20:09.349Z,94305.67
2018-04-07T08:22:36.994Z,94302.14
2018-04-07T08:25:04.620Z,94301.78
2018-04-07T08:27:32.386Z,94301.73
2018-04-07T08:30:02.951Z,94293.41
2018-04-07T08:32:30.561Z,94291.44
2018-04-07T08:34:58.203Z,94289.89
2018-04-07T08:37:25.854Z,94291.30
2018-04-07T08:39:53.448Z,94283.73
2018-04-07T08:42:21.068Z,94281.89
2018-04-07T08:44:48.750Z,94278.63
2018-04-07T08:47:16.576Z,94276.94
2018-04-07T08:49:44.243Z,94276.27
2018-04-07T08:52:11.887Z,94275.14
2018-04-07T08:54:39.605Z,94267.08
2018-04-07T08:57:07.228Z,94265.92
2018-04-07T08:59:34.996Z,94263.06
2018-04-07T09:02:02.643Z,94252.11
2018-04-07T09:04:31.107Z,94257.45
2018-04-07T09:06:59.344Z,94248.77
2018-04-07T09:09:27.009Z,94247.34
2018-04-07T09:11:55.526Z,94244.80
2018-04-07T09:14:23.268Z,94242.30
2018-04-07T09:16:50.860Z,94248.38
2018-04-07T09:19:18.539Z,94246.20
2018-04-07T09:21:48.335Z,94239.63
2018-04-07T09:24:15.949Z,94233.90
2018-04-07T09:26:43.678Z,94236.91
2018-04-07T09:29:11.383Z,94229.81
2018-04-07T09:31:39.016Z,94228.19
2018-04-07T09:34:06.668Z,94224.53
2018-04-07T09:36:34.681Z,94213.85
2018-04-07T09:39:03.556Z,94214.70
2018-04-07T09:41:31.344Z,94202.42
2018-04-07T09:43:59.006Z,94207.20
2018-04-07T09:46:26.719Z,94204.92
2018-04-07T09:48:54.401Z,94193.13
2018-04-07T09:51:22.076Z,94191.78
2018-04-07T09:53:49.677Z,94186.06
2018-04-07T09:56:17.319Z,94181.06
2018-04-07T09:58:45.124Z,94185.08
2018-04-07T10:01:12.989Z,94182.27
2018-04-07T10:03:40.632Z,94189.88
2018-04-07T10:06:08.288Z,94180.00
2018-04-07T10:08:35.974Z,94176.82
2018-04-07T10:11:03.652Z,94169.20
2018-04-07T10:13:31.321Z,94175.14
2018-04-07T10:15:58.917Z,94169.28
2018-04-07T10:18:26.569Z,94169.19
2018-04-07T10:20:54.237Z,94159.10
2018-04-07T10:23:22.579Z,94160.65
2018-04-07T10:25:50.227Z,94158.41
2018-04-07T10:28:17.922Z,94151.35
2018-04-07T10:30:45.756Z,94156.30
2018-04-07T10:33:13.366Z,94146.03
2018-04-07T10:35:41.083Z,94150.74
2018-04-07T10:38:08.717Z,94148.88
2018-04-07T10:40:36.362Z,94139.70
2018-04-07T10:43:04.073Z,94143.56
2018-04-07T10:45:31.843Z,94143.94
2018-04-07T10:47:59.554Z,94142.69
2018-04-07T10:50:27.218Z,94140.14
2018-04-07T10:52:54.880Z,94138.81
2018-04-07T10:55:23.518Z,94134.58
2018-04-07T10:57:51.268Z,94124.39
2018-04-07T11:00:19.050Z,94120.20
2018-04-07T11:02:46.797Z,94114.84
2018-04-07T11:05:14.461Z,94109.08
2018-04-07T11:07:42.054Z,94106.39
2018-04-07T11:10:09.694Z,94103.13
2018-04-07T11:12:37.450Z,94097.54
2018-04-07T11:15:05.489Z,94098.22
2018-04-07T11:17:33.182Z,94097.91
2018-04-07T11:20:00.833Z,94092.56
2018-04-07T11:22:28.456Z,94091.84
2018-04-07T11:24:56.121Z,94086.14
2018-04-07T11:27:23.801Z,94083.47
2018-04-07T11:29:51.491Z,94085.77
2018-04-07T11:32:19.142Z,94080.41
2018-04-07T11:34:46.801Z,94078.52
2018-04-07T11:37:14.464Z,94071.91
2018-04-07T11:39:42.164Z,94073.73
2018-04-07T11:42:09.752Z,94073.03
2018-04-07T11:44:37.425Z,94073.25
2018-04-07T11:47:05.078Z,94071.11
2018-04-07T11:49:33.294Z,94066.29
2018-04-07T11:52:00.905Z,94064.66
2018-04-07T11:54:28.560Z,94062.84
2018-04-07T11:56:56.184Z,94059.64
2018-04-07T11:59:23.878Z,94059.41
2018-04-07T12:01:51.485Z,94053.23
2018-04-07T12:04:19.169Z,94052.05
2018-04-07T12:06:46.877Z,94051.30
2018-04-07T12:09:14.606Z,94045.17
2018-04-07T12:11:42.465Z,94044.70
2018-04-07T12:14:10.333Z,94036.91
2018-04-07T12:16:38.251Z,94038.70
2018-04-07T12:19:10.489Z,94028.02
2018-04-07T12:21:40.404Z,94032.87
2018-04-07T12:24:08.257Z,94030.30
2018-04-07T12:26:36.235Z,94031.95
2018-04-07T12:29:03.862Z,94023.05
2018-04-07T12:31:32.402Z,94019.27
2018-04-07T12:34:00.122Z,94022.53
2018-04-07T12:36:27.880Z,94004.09
2018-04-07T12:38:55.518Z,94005.92
2018-04-07T12:41:23.262Z,94007.17
2018-04-07T12:43:51.790Z,93995.73
2018-04-07T12:46:19.449Z,93996.00
2018-04-07T12:48:47.072Z,93992.22
2018-04-07T12:51:16.136Z,93990.41
2018-04-07T12:53:44.686Z,93982.74
2018-04-07T12:56:12.379Z,93990.06
2018-04-07T12:58:40.041Z,93976.39
2018-04-07T13:01:07.741Z,93977.23
2018-04-07T13:03:35.466Z,93977.33
2018-04-07T13:06:03.130Z,93975.80
2018-04-07T13:08:30.846Z,93984.73
2018-04-07T13:10:58.865Z,93977.70
2018-04-07T13:13:26.517Z,93972.73
2018-04-07T13:15:54.394Z,93967.17
2018-04-07T13:18:22.240Z,93971.55
2018-04-07T13:20:50.914Z,93973.21
2018-04-07T13:23:18.915Z,93970.38
2018-04-07T13:25:46.641Z,93964.41
2018-04-07T13:28:14.317Z,93964.23
2018-04-07T13:30:41.997Z,93953.95
2018-04-07T13:33:09.773Z,93955.23
2018-04-07T13:35:37.415Z,93948.84
2018-04-07T13:38:05.294Z,93945.97
2018-04-07T13:40:33.194Z,93943.48
2018-04-07T13:43:00.879Z,93942.55
2018-04-07T13:45:28.634Z,93941.94
2018-04-07T13:47:56.446Z,93932.55
2018-04-07T13:50:24.129Z,93931.77
2018-04-07T13:52:52.399Z,93933.16
2018-04-07T13:55:20.032Z,93930.66
2018-04-07T13:57:48.910Z,93926.84
2018-04-07T14:00:16.809Z,93924.13
2018-04-07T14:02:44.654Z,93916.73
2018-04-07T14:05:12.544Z,93926.26
2018-04-07T14:07:40.170Z,93921.09
2018-04-07T14:10:07.820Z,93915.28
2018-04-07T14:12:35.504Z,93910.39
2018-04-07T14:15:03.113Z,93907.95
2018-04-07T14:17:30.769Z,93912.64
2018-04-07T14:19:58.522Z,93912.06
2018-04-07T14:22:27.009Z,93908.70
2018-04-07T14:24:54.884Z,93905.64
2018-04-07T14:27:22.568Z,93900.44
2018-04-07T14:29:50.608Z,93899.23
2018-04-07T14:32:18.383Z,93910.11
2018-04-07T14:34:46.008Z,93909.77
2018-04-07T14:37:13.915Z,93901.61
2018-04-07T14:39:41.594Z,93899.57
2018-04-07T14:42:09.412Z,93899.94
2018-04-07T14:44:37.097Z,93899.10
2018-04-07T14:47:04.709Z,93896.09
2018-04-07T14:49:32.633Z,93897.13
2018-04-07T14:52:00.520Z,93896.59
2018-04-07T14:54:28.720Z,93901.71
2018-04-07T14:56:56.423Z,93903.31
2018-04-07T14:59:24.073Z,93896.36
2018-04-07T15:01:51.734Z,93895.24
2018-04-07T15:04:20.310Z,93891.80
2018-04-07T15:06:47.960Z,93884.36
2018-04-07T15:09:15.596Z,93894.17
2018-04-07T15:11:43.330Z,93905.92
2018-04-07T15:14:11.198Z,93891.50
2018-04-07T15:16:38.803Z,93892.28
2018-04-07T15:19:06.519Z,93889.42
2018-04-07T15:21:34.532Z,93889.38
2018-04-07T15:24:02.203Z,93886.95
2018-04-07T15:26:30.123Z,93884.33
2018-04-07T15:28:59.373Z,93882.23
2018-04-07T15:31:27.086Z,93878.20
2018-04-07T15:33:54.937Z,93883.08
2018-04-07T15:36:22.586Z,93888.09
2018-04-07T15:38:51.688Z,93889.39
2018-04-07T15:41:19.431Z,93882.53
2018-04-07T15:43:47.342Z,93883.72
2018-04-07T15:46:14.982Z,93886.25
2018-04-07T15:48:42.729Z,93881.00
2018-04-07T15:51:11.349Z,93890.23
2018-04-07T15:53:39.124Z,93886.77
2018-04-07T15:56:06.792Z,93885.66
2018-04-07T15:58:34.640Z,93896.20
2018-04-07T16:01:02.926Z,93893.17
2018-04-07T16:03:31.815Z,93890.13
2018-04-07T16:05:59.691Z,93893.59
2018-04-07T16:08:27.541Z,93894.09
2018-04-07T16:10:55.194Z,93888.34
2018-04-07T16:13:22.984Z,93891.22
2018-04-07T16:15:51.300Z,93888.15
2018-04-07T16:18:19.645Z,93889.24
2018-04-07T16:20:48.232Z,93890.11
2018-04-07T16:23:16.252Z,93897.06
2018-04-07T16:25:44.419Z,93896.45
2018-04-07T16:28:12.989Z,93897.37
2018-04-07T16:30:40.910Z,93893.41
2018-04-07T16:33:08.950Z,93897.20
2018-04-07T16:35:37.062Z,93892.68
2018-04-07T16:38:05.222Z,93899.89
2018-04-07T16:40:33.001Z,93897.48
2018-04-07T16:43:01.477Z,93895.06
2018-04-07T16:45:29.910Z,93889.84
2018-04-07T16:47:57.627Z,93902.89
2018-04-07T16:50:26.038Z,93894.77
2018-04-07T16:52:54.036Z,93897.97
2018-04-07T16:55:21.723Z,93888.24
2018-04-07T16:57:49.464Z,93892.19
2018-04-07T17:00:17.185Z,93890.25
2018-04-07T17:02:45.155Z,93896.78
2018-04-07T17:05:12.837Z,93899.31
2018-04-07T17:07:40.532Z,93895.67
2018-04-07T17:10:08.476Z,93897.64
2018-04-07T17:12:37.322Z,93902.50
2018-04-07T17:15:05.320Z,93904.73
2018-04-07T17:17:32.996Z,93914.31
2018-04-07T17:20:00.700Z,93908.89
2018-04-07T17:22:28.344Z,93908.87
2018-04-07T17:24:56.142Z,93903.77
2018-04-07T17:27:23.837Z,93909.39
2018-04-07T17:29:51.486Z,93908.20
2018-04-07T17:32:19.437Z,93914.23
2018-04-07T17:34:47.511Z,93916.75
2018-04-07T17:37:15.647Z,93923.64
2018-04-07T17:39:43.859Z,93924.93
2018-04-07T17:42:12.136Z,93927.85
2018-04-07T17:44:40.129Z,93934.92
2018-04-07T17:47:09.119Z,93925.38
2018-04-07T17:49:43.733Z,93933.79
2018-04-07T17:52:05.855Z,93938.66
2018-04-07T17:54:33.521Z,93955.98
2018-04-07T17:57:01.410Z,93947.22
2018-04-07T17:59:29.235Z,93953.25
2018-04-07T18:01:56.964Z,93956.91
2018-04-07T18:04:24.793Z,93956.19
2018-04-07T18:06:52.862Z,93965.48
2018-04-07T18:09:22.361Z,93970.91
2018-04-07T18:11:50.022Z,93974.34
2018-04-07T18:14:17.794Z,93972.56
2018-04-07T18:16:45.464Z,93977.77
2018-04-07T18:19:13.149Z,93983.55
2018-04-07T18:21:41.733Z,93987.75
2018-04-07T18:24:10.995Z,93986.05
2018-04-07T18:26:39.067Z,93998.54
2018-04-07T18:29:07.147Z,93993.02
2018-04-07T18:31:36.333Z,94006.19
2018-04-07T18:34:04.083Z,93995.56
2018-04-07T18:36:31.960Z,94007.65
2018-04-07T18:39:00.778Z,94011.02
2018-04-07T18:41:28.533Z,94020.52
2018-04-07T18:43:56.171Z,94026.89
2018-04-07T18:46:24.046Z,94031.95
2018-04-07T18:48:51.808Z,94029.92
2018-04-07T18:51:19.830Z,94037.05
2018-04-07T18:53:48.288Z,94036.48
2018-04-07T18:56:16.157Z,94034.22
2018-04-07T18:58:43.945Z,94036.56
2018-04-07T19:01:12.754Z,94045.11
2018-04-07T19:03:40.442Z,94049.00
2018-04-07T19:06:09.246Z,94048.38
2018-04-07T19:08:37.091Z,94045.16
2018-04-07T19:11:05.083Z,94053.59
2018-04-07T19:13:33.125Z,94048.71
2018-04-07T19:16:01.069Z,94049.20
2018-04-07T19:18:29.208Z,94056.00
2018-04-07T19:20:57.367Z,94051.59
2018-04-07T19:23:25.343Z,94059.62
2018-04-07T19:25:53.234Z,94062.17
2018-04-07T19:28:21.278Z,94059.44
2018-04-07T19:30:49.395Z,94062.34
2018-04-07T19:33:17.208Z,94071.42
2018-04-07T19:35:45.560Z,94059.84
2018-04-07T19:38:13.387Z,94065.83
2018-04-07T19:40:41.194Z,94066.38
2018-04-07T19:43:08.949Z,94070.45
2018-04-07T19:45:36.636Z,94061.09
2018-04-07T19:48:04.288Z,94080.22
2018-04-07T19:50:32.084Z,94073.12
2018-04-07T19:52:59.751Z,94074.17
2018-04-07T19:55:27.440Z,94075.11
2018-04-07T19:57:55.092Z,94077.56
2018-04-07T20:00:24.018Z,94076.84
2018-04-07T20:02:51.823Z,94082.22
2018-04-07T20:05:19.475Z,94078.68
2018-04-07T20:07:47.170Z,94083.09
2018-04-07T20:10:14.847Z,94081.50
2018-04-07T20:12:42.554Z,94073.49
2018-04-07T20:15:10.259Z,94074.56
2018-04-07T20:17:37.955Z,94064.95
2018-04-07T20:20:05.702Z,94071.84
2018-04-07T20:22:33.446Z,94073.91
2018-04-07T20:25:01.052Z,94073.24
2018-04-07T20:27:29.325Z,94066.08
2018-04-07T20:29:56.945Z,94058.64
2018-04-07T20:32:24.586Z,94071.31
2018-04-07T20:34:52.345Z,94074.05
2018-04-07T20:37:20.066Z,94077.00
2018-04-07T20:39:47.792Z,94080.11
2018-04-07T20:42:27.119Z,94071.34
2018-04-07T20:44:54.795Z,94071.53
2018-04-07T20:47:24.248Z,94068.45
2018-04-07T20:49:51.977Z,94085.30
2018-04-07T20:52:20.389Z,94075.70
2018-04-07T20:54:48.114Z,94072.53
2018-04-07T20:57:15.715Z,94074.66
2018-04-07T20:59:43.374Z,94078.46
2018-04-07T21:02:11.082Z,94073.11
2018-04-07T21:04:38.742Z,94068.83
2018-04-07T21:07:06.528Z,94075.90
2018-04-07T21:09:34.177Z,94078.48
2018-04-07T21:12:01.837Z,94070.09
2018-04-07T21:14:29.455Z,94074.42
2018-04-07T21:16:57.221Z,94076.77
2018-04-07T21:19:24.887Z,94069.45
2018-04-07T21:21:52.587Z,94064.41
2018-04-07T21:24:21.204Z,94060.44
2018-04-07T21:26:49.206Z,94056.84
2018-04-07T21:29:17.316Z,94057.61
2018-04-07T21:31:44.934Z,94059.41
2018-04-07T21:34:12.523Z,94046.73
2018-04-07T21:36:40.602Z,94039.61
2018-04-07T21:39:08.411Z,94045.89
2018-04-07T21:41:36.010Z,94043.16
2018-04-07T21:44:03.913Z,94047.91
2018-04-07T21:46:31.573Z,94048.70
2018-04-07T21:48:59.272Z,94047.70
2018-04-07T21:51:26.970Z,94049.52
2018-04-07T21:53:55.124Z,94055.84
2018-04-07T21:56:22.773Z,94040.66
2018-04-07T21:58:50.430Z,94038.63
2018-04-07T22:01:18.134Z,94041.78
2018-04-07T22:03:46.291Z,94039.54
2018-04-07T22:06:13.954Z,94030.56
2018-04-07T22:08:41.697Z,94036.66
2018-04-07T22:11:09.422Z,94030.31
2018-04-07T22:13:37.054Z,94033.70
2018-04-07T22:16:04.647Z,94025.44
2018-04-07T22:18:32.323Z,94026.86
2018-04-07T22:20:59.929Z,94023.27
2018-04-07T22:23:27.545Z,94020.72
2018-04-07T22:25:55.439Z,94016.92
2018-04-07T22:28:23.075Z,94019.72
2018-04-07T22:30:51.740Z,94020.19
2018-04-07T22:33:19.426Z,94018.70
2018-04-07T22:35:47.071Z,94014.23
2018-04-07T22:38:14.758Z,94013.89
2018-04-07T22:40:42.416Z,94016.27
2018-04-07T22:43:10.203Z,94019.14
2018-04-07T22:45:37.799Z,94022.95
2018-04-07T22:48:05.449Z,94017.30
2018-04-07T22:50:33.105Z,94018.86
2018-04-07T22:53:00.754Z,94009.72
2018-04-07T22:55:28.425Z,94008.46
2018-04-07T22:57:56.138Z,93999.80
2018-04-07T23:00:24.707Z,93999.41
2018-04-07T23:02:52.447Z,93999.08
2018-04-07T23:05:20.045Z,93997.78
2018-04-07T23:07:47.731Z,93998.62
2018-04-07T23:10:15.374Z,93984.27
2018-04-07T23:12:43.037Z,93990.27
2018-04-07T23:15:10.662Z,93985.27
2018-04-07T23:17:38.325Z,93986.27
2018-04-07T23:20:05.945Z,93978.20
2018-04-07T23:22:33.597Z,93978.34
2018-04-07T23:25:01.540Z,93978.67
2018-04-07T23:27:29.892Z,93974.64
2018-04-07T23:29:57.638Z,93972.66
2018-04-07T23:32:25.239Z,93968.95
2018-04-07T23:34:52.885Z,93966.77
2018-04-07T23:37:20.545Z,93969.02
2018-04-07T23:39:48.237Z,93962.95
2018-04-07T23:42:15.887Z,93961.67
2018-04-07T23:44:43.538Z,93956.39
2018-04-07T23:47:11.168Z,93952.66
2018-04-07T23:49:38.750Z,93944.80
2018-04-07T23:52:06.384Z,93947.55
2018-04-07T23:54:34.011Z,93936.41
2018-04-07T23:57:01.663Z,93942.98
2018-04-07T23:59:29.346Z,93937.62
